x

Devils Island, Wi (disw3) Weather Station

9:00am - Tue 30th Sep 2014 All times are CDT. -5 hours from GMT.

  • Wind
    14mph, 16mph gusts
  • Air Temp 45°f
  • Sea Pressure 1021.7mb
  • Devils Island, Wi
  • Devils Island, Wi

More Historic Weather Station data

Upgrade to MSW Pro to gain access to the past 30 days of data for over 8000 Wavebouys and Weather Stations around the globe.

Join Pro

Comparision Forecast

View Surf forecast
   
Tue 09/30 9:00am 14 16 mph 1021.7mb 45f
8:00am 13 14 mph 1022.1mb 44f
7:00am 11 14 mph 1021.9mb 44f
6:00am 11 14 mph 1022.3mb 44f
5:00am 15 16 mph 1022.3mb 45f
4:00am 18 23 mph 1022.1mb 45f
3:00am 10 13 mph 1022.2mb 44f
2:00am 14 16 mph 1022.5mb 44f
1:00am 16 21 mph 1023.1mb 44f
12:00am 15 16 mph 1023.6mb 44f
Mon 09/29 11:00pm 22 28 mph 1023.4mb 45f
10:00pm 20 22 mph 1023.7mb 46f
9:00pm 17 21 mph 1023.8mb 46f
8:00pm 14 17 mph 1023.8mb 46f
7:00pm 15 17 mph 1023.7mb 46f
6:00pm 14 16 mph 1023.8mb 45f
5:00pm 15 18 mph 1023.9mb 45f
4:00pm 14 17 mph 1024.3mb 44f
3:00pm 18 22 mph 1024.7mb 44f
2:00pm 20 22 mph 1024.9mb 43f
1:00pm 22 25 mph 1024.9mb 43f
12:00pm 22 23 mph 1025.1mb 42f
11:00am 23 28 mph 1024.7mb 42f
10:00am 21 25 mph 1024.8mb 43f
9:00am 23 26 mph 1024.2mb 43f
8:00am 24 26 mph 1023.7mb 44f
7:00am 28 31 mph 1022.9mb 44f
6:00am 25 29 mph 1022.3mb 45f
5:00am 25 28 mph 1022.1mb 46f
4:00am 24 26 mph 1022.2mb 46f
3:00am 24 26 mph 1021.8mb 46f
2:00am 29 32 mph 1021.4mb 47f
1:00am 29 30 mph 1021.5mb 48f
12:00am 28 31 mph 1021mb 48f
Sun 09/28 11:00pm 37 43 mph 1019.6mb 50f
10:00pm 32 34 mph 1019.3mb 52f
9:00pm 34 40 mph 1018.4mb -
8:00pm 29 32 mph 1017.9mb -
7:00pm 9 18 mph 1015.7mb 71f
6:00pm 8 10 mph 1015.3mb 73f
5:00pm 8 10 mph 1015.3mb 73f
4:00pm 6 7 mph 1015.7mb 75f
3:00pm 7 10 mph 1016.3mb 74f
2:00pm 7 9 mph 1017.2mb 70f
1:00pm 7 10 mph 1018.3mb 65f
12:00pm 9 10 mph 1018.5mb 65f
11:00am 11 14 mph 1018.6mb 65f
10:00am 9 13 mph 1019.2mb 62f
9:00am 11 13 mph 1019.3mb 64f
8:00am 9 10 mph 1019.2mb 64f
7:00am 8 9 mph 1019.2mb 64f
6:00am 8 9 mph 1019.4mb 64f
5:00am 7
mph
1019.7mb 63f
4:00am 7 8 mph 1019.7mb 64f
3:00am 7 8 mph 1019.8mb 64f
2:00am 6
mph
1019.9mb 64f
1:00am 10 11 mph 1019.4mb 69f
12:00am 10 13 mph 1019.3mb 69f
Sat 09/27 11:00pm 7
mph
1019.5mb 67f
10:00pm 7
mph
1019.5mb 67f
9:00pm 6
mph
1019.2mb 69f
8:00pm 3 5 mph 1019.3mb 62f
7:00pm 5
mph
1018.7mb 67f
6:00pm 6
mph
1018.6mb 65f
5:00pm 7
mph
1018.8mb 64f
4:00pm 6 7 mph 1019.3mb 63f
3:00pm 5 6 mph 1019.5mb 63f
2:00pm 3 5 mph 1020mb 64f
1:00pm 8 9 mph 1020.7mb 63f
12:00pm  -  2 mph 1020.6mb 68f
11:00am 2 3 mph 1020.9mb 68f
10:00am 6 9 mph 1021.3mb 66f
9:00am 6 7 mph 1021.5mb 64f
8:00am 8 10 mph 1021.5mb 63f
7:00am 8 9 mph 1021.7mb 62f
6:00am 7
mph
1021.4mb 62f
5:00am 5 6 mph 1021.7mb 61f
4:00am 5 6 mph 1021.6mb 62f
3:00am 2
mph
1022mb 58f
2:00am 3 5 mph 1021.9mb 60f
1:00am 2
mph
1021.9mb 59f
12:00am 2
mph
1021.9mb 58f
Fri 09/26 11:00pm 2
mph
1022mb 59f
10:00pm 5 6 mph 1021.7mb 61f
9:00pm 7
mph
1021.9mb 60f
8:00pm 9 10 mph 1021.8mb 61f
7:00pm 9 10 mph 1021.6mb 61f
6:00pm 10
mph
1021.7mb 58f
5:00pm 9
mph
1022mb 58f
4:00pm 9
mph
1022.3mb 57f